sensor_id;sensor_type;location;lat;lon;timestamp;pressure;altitude;pressure_sealevel;temperature;humidity
21828;BME280;11076;47.942;11.804;2023-05-25T00:01:14;94615.00;;;10.23;100.00
21828;BME280;11076;47.942;11.804;2023-05-25T00:06:17;94616.22;;;10.27;100.00
21828;BME280;11076;47.942;11.804;2023-05-25T00:11:21;94608.41;;;10.32;100.00
21828;BME280;11076;47.942;11.804;2023-05-25T00:16:24;94603.47;;;10.35;100.00
21828;BME280;11076;47.942;11.804;2023-05-25T00:21:27;94590.31;;;10.34;100.00
21828;BME280;11076;47.942;11.804;2023-05-25T00:26:29;94580.47;;;10.34;100.00
21828;BME280;11076;47.942;11.804;2023-05-25T00:31:31;94567.72;;;10.30;100.00
21828;BME280;11076;47.942;11.804;2023-05-25T00:36:34;94559.50;;;10.31;100.00
21828;BME280;11076;47.942;11.804;2023-05-25T00:41:38;94572.22;;;10.36;100.00
21828;BME280;11076;47.942;11.804;2023-05-25T00:46:50;94571.78;;;10.39;100.00
21828;BME280;11076;47.942;11.804;2023-05-25T00:51:53;94576.69;;;10.42;100.00
21828;BME280;11076;47.942;11.804;2023-05-25T00:57:06;94573.22;;;10.42;100.00
21828;BME280;11076;47.942;11.804;2023-05-25T01:02:11;94584.31;;;10.45;100.00
21828;BME280;11076;47.942;11.804;2023-05-25T01:07:21;94595.19;;;10.50;100.00
21828;BME280;11076;47.942;11.804;2023-05-25T01:12:36;94587.78;;;10.52;100.00
21828;BME280;11076;47.942;11.804;2023-05-25T01:17:38;94584.66;;;10.55;100.00
21828;BME280;11076;47.942;11.804;2023-05-25T01:23:07;94582.81;;;10.56;100.00
21828;BME280;11076;47.942;11.804;2023-05-25T01:28:11;94576.66;;;10.55;100.00
21828;BME280;11076;47.942;11.804;2023-05-25T01:33:17;94583.63;;;10.57;100.00
21828;BME280;11076;47.942;11.804;2023-05-25T01:38:20;94582.19;;;10.61;100.00
21828;BME280;11076;47.942;11.804;2023-05-25T01:43:22;94589.75;;;10.64;100.00
21828;BME280;11076;47.942;11.804;2023-05-25T01:48:36;94589.16;;;10.62;100.00
21828;BME280;11076;47.942;11.804;2023-05-25T01:53:49;94584.84;;;10.61;100.00
21828;BME280;11076;47.942;11.804;2023-05-25T01:58:56;94586.69;;;10.60;100.00
21828;BME280;11076;47.942;11.804;2023-05-25T02:04:00;94591.81;;;10.62;100.00
21828;BME280;11076;47.942;11.804;2023-05-25T02:09:03;94589.34;;;10.67;100.00
21828;BME280;11076;47.942;11.804;2023-05-25T02:14:05;94593.63;;;10.68;100.00
21828;BME280;11076;47.942;11.804;2023-05-25T02:19:08;94590.34;;;10.66;100.00
21828;BME280;11076;47.942;11.804;2023-05-25T02:24:12;94593.84;;;10.66;100.00
21828;BME280;11076;47.942;11.804;2023-05-25T02:29:15;94589.34;;;10.67;100.00
21828;BME280;11076;47.942;11.804;2023-05-25T02:34:18;94586.06;;;10.65;100.00
21828;BME280;11076;47.942;11.804;2023-05-25T02:39:20;94581.34;;;10.60;100.00
21828;BME280;11076;47.942;11.804;2023-05-25T02:44:23;94576.22;;;10.59;100.00
21828;BME280;11076;47.942;11.804;2023-05-25T02:49:26;94582.59;;;10.58;100.00
21828;BME280;11076;47.942;11.804;2023-05-25T02:54:28;94593.13;;;10.52;100.00
21828;BME280;11076;47.942;11.804;2023-05-25T02:59:32;94579.97;;;10.44;100.00
21828;BME280;11076;47.942;11.804;2023-05-25T03:04:34;94572.44;;;10.34;100.00
21828;BME280;11076;47.942;11.804;2023-05-25T03:09:39;94591.34;;;10.33;100.00
21828;BME280;11076;47.942;11.804;2023-05-25T03:14:42;94591.34;;;10.33;100.00
21828;BME280;11076;47.942;11.804;2023-05-25T03:19:45;94591.56;;;10.31;100.00
21828;BME280;11076;47.942;11.804;2023-05-25T03:24:47;94574.88;;;10.36;100.00
21828;BME280;11076;47.942;11.804;2023-05-25T03:29:51;94575.88;;;10.42;100.00
21828;BME280;11076;47.942;11.804;2023-05-25T03:34:54;94571.34;;;10.42;100.00
21828;BME280;11076;47.942;11.804;2023-05-25T03:39:57;94580.84;;;10.38;100.00
21828;BME280;11076;47.942;11.804;2023-05-25T03:45:00;94580.63;;;10.40;100.00
21828;BME280;11076;47.942;11.804;2023-05-25T03:50:03;94576.31;;;10.39;100.00
21828;BME280;11076;47.942;11.804;2023-05-25T03:55:07;94579.00;;;10.39;100.00
21828;BME280;11076;47.942;11.804;2023-05-25T04:00:10;94577.56;;;10.36;100.00
21828;BME280;11076;47.942;11.804;2023-05-25T04:05:16;94577.53;;;10.43;100.00
21828;BME280;11076;47.942;11.804;2023-05-25T04:10:19;94591.88;;;10.48;100.00
21828;BME280;11076;47.942;11.804;2023-05-25T04:15:22;94609.53;;;10.56;100.00
21828;BME280;11076;47.942;11.804;2023-05-25T04:20:47;94612.00;;;10.58;100.00
21828;BME280;11076;47.942;11.804;2023-05-25T04:25:51;94591.41;;;10.65;100.00
21828;BME280;11076;47.942;11.804;2023-05-25T04:30:55;94594.25;;;10.70;100.00
21828;BME280;11076;47.942;11.804;2023-05-25T04:36:22;94604.53;;;10.73;100.00
21828;BME280;11076;47.942;11.804;2023-05-25T04:41:25;94604.47;;;10.86;100.00
21828;BME280;11076;47.942;11.804;2023-05-25T04:46:34;94617.56;;;10.94;100.00
21828;BME280;11076;47.942;11.804;2023-05-25T04:51:40;94611.97;;;10.96;100.00
21828;BME280;11076;47.942;11.804;2023-05-25T04:56:43;94614.63;;;11.03;100.00
21828;BME280;11076;47.942;11.804;2023-05-25T05:01:46;94624.53;;;10.95;100.00
21828;BME280;11076;47.942;11.804;2023-05-25T05:06:50;94625.59;;;10.94;100.00
21828;BME280;11076;47.942;11.804;2023-05-25T05:11:56;94629.09;;;10.95;100.00
21828;BME280;11076;47.942;11.804;2023-05-25T05:16:59;94624.94;;;10.99;100.00
21828;BME280;11076;47.942;11.804;2023-05-25T05:22:01;94635.19;;;11.09;100.00
21828;BME280;11076;47.942;11.804;2023-05-25T05:27:04;94617.66;;;11.13;100.00
21828;BME280;11076;47.942;11.804;2023-05-25T05:32:14;94625.41;;;11.21;100.00
21828;BME280;11076;47.942;11.804;2023-05-25T05:37:17;94635.81;;;11.36;100.00
21828;BME280;11076;47.942;11.804;2023-05-25T05:42:20;94638.94;;;11.58;100.00
21828;BME280;11076;47.942;11.804;2023-05-25T05:47:22;94645.63;;;11.67;100.00
21828;BME280;11076;47.942;11.804;2023-05-25T05:52:25;94647.91;;;11.70;100.00
21828;BME280;11076;47.942;11.804;2023-05-25T05:57:27;94648.41;;;11.79;100.00
21828;BME280;11076;47.942;11.804;2023-05-25T06:02:30;94653.50;;;11.94;100.00
21828;BME280;11076;47.942;11.804;2023-05-25T06:07:33;94646.03;;;11.96;100.00
21828;BME280;11076;47.942;11.804;2023-05-25T06:12:36;94645.59;;;11.99;100.00
21828;BME280;11076;47.942;11.804;2023-05-25T06:17:40;94665.19;;;12.18;100.00
21828;BME280;11076;47.942;11.804;2023-05-25T06:22:44;94655.47;;;12.42;100.00
21828;BME280;11076;47.942;11.804;2023-05-25T06:27:47;94654.22;;;12.75;100.00
21828;BME280;11076;47.942;11.804;2023-05-25T06:32:49;94665.81;;;12.76;100.00
21828;BME280;11076;47.942;11.804;2023-05-25T06:37:52;94669.72;;;12.73;100.00
21828;BME280;11076;47.942;11.804;2023-05-25T06:42:55;94675.69;;;12.93;100.00
21828;BME280;11076;47.942;11.804;2023-05-25T06:48:17;94677.09;;;12.96;100.00
21828;BME280;11076;47.942;11.804;2023-05-25T06:53:20;94683.59;;;13.19;100.00
21828;BME280;11076;47.942;11.804;2023-05-25T06:58:23;94682.09;;;13.23;100.00
21828;BME280;11076;47.942;11.804;2023-05-25T07:03:26;94692.72;;;13.48;100.00
21828;BME280;11076;47.942;11.804;2023-05-25T07:08:28;94704.53;;;13.59;100.00
21828;BME280;11076;47.942;11.804;2023-05-25T07:13:30;94701.25;;;13.26;100.00
21828;BME280;11076;47.942;11.804;2023-05-25T07:18:33;94691.91;;;13.47;100.00
21828;BME280;11076;47.942;11.804;2023-05-25T07:23:36;94695.16;;;13.38;100.00
21828;BME280;11076;47.942;11.804;2023-05-25T07:28:38;94696.31;;;13.11;100.00
21828;BME280;11076;47.942;11.804;2023-05-25T07:33:41;94706.94;;;13.18;100.00
21828;BME280;11076;47.942;11.804;2023-05-25T07:38:43;94705.81;;;13.26;100.00
21828;BME280;11076;47.942;11.804;2023-05-25T07:43:46;94707.22;;;13.59;100.00
21828;BME280;11076;47.942;11.804;2023-05-25T07:48:49;94715.69;;;13.86;100.00
21828;BME280;11076;47.942;11.804;2023-05-25T07:53:51;94724.69;;;13.80;100.00
21828;BME280;11076;47.942;11.804;2023-05-25T07:58:55;94724.34;;;13.88;100.00
21828;BME280;11076;47.942;11.804;2023-05-25T08:03:58;94713.28;;;14.08;100.00
21828;BME280;11076;47.942;11.804;2023-05-25T08:09:02;94719.47;;;14.08;100.00
21828;BME280;11076;47.942;11.804;2023-05-25T08:14:05;94724.25;;;14.06;100.00
21828;BME280;11076;47.942;11.804;2023-05-25T08:19:07;94737.13;;;14.28;100.00
21828;BME280;11076;47.942;11.804;2023-05-25T08:24:10;94732.47;;;14.35;100.00
21828;BME280;11076;47.942;11.804;2023-05-25T08:29:12;94733.75;;;14.68;100.00
21828;BME280;11076;47.942;11.804;2023-05-25T08:34:15;94746.03;;;14.87;100.00
21828;BME280;11076;47.942;11.804;2023-05-25T08:39:18;94738.44;;;15.25;99.82
21828;BME280;11076;47.942;11.804;2023-05-25T08:44:20;94750.56;;;15.10;98.61
21828;BME280;11076;47.942;11.804;2023-05-25T08:49:23;94753.47;;;15.09;95.07
21828;BME280;11076;47.942;11.804;2023-05-25T08:54:36;94753.50;;;15.78;97.52
21828;BME280;11076;47.942;11.804;2023-05-25T08:59:50;94756.88;;;16.19;94.38
21828;BME280;11076;47.942;11.804;2023-05-25T09:04:54;94755.59;;;16.22;90.09
21828;BME280;11076;47.942;11.804;2023-05-25T09:09:58;94763.41;;;16.23;89.96
21828;BME280;11076;47.942;11.804;2023-05-25T09:15:02;94762.03;;;16.21;90.75
21828;BME280;11076;47.942;11.804;2023-05-25T09:20:06;94759.66;;;16.58;89.86
21828;BME280;11076;47.942;11.804;2023-05-25T09:25:09;94767.50;;;17.16;87.63
21828;BME280;11076;47.942;11.804;2023-05-25T09:30:12;94767.13;;;17.51;83.97
21828;BME280;11076;47.942;11.804;2023-05-25T09:35:15;94771.72;;;17.78;82.67
21828;BME280;11076;47.942;11.804;2023-05-25T09:40:17;94774.56;;;17.88;80.86
21828;BME280;11076;47.942;11.804;2023-05-25T09:45:22;94773.81;;;18.57;78.76
21828;BME280;11076;47.942;11.804;2023-05-25T09:50:27;94771.72;;;19.07;75.51
21828;BME280;11076;47.942;11.804;2023-05-25T09:55:30;94770.50;;;18.82;74.18
21828;BME280;11076;47.942;11.804;2023-05-25T10:00:41;94778.25;;;19.06;74.78
21828;BME280;11076;47.942;11.804;2023-05-25T10:05:44;94783.00;;;19.41;72.89
21828;BME280;11076;47.942;11.804;2023-05-25T10:10:47;94785.28;;;19.07;73.90
21828;BME280;11076;47.942;11.804;2023-05-25T10:15:52;94788.22;;;18.63;72.97
21828;BME280;11076;47.942;11.804;2023-05-25T10:20:59;94796.31;;;19.43;72.30
21828;BME280;11076;47.942;11.804;2023-05-25T10:26:04;94783.50;;;20.06;69.61
21828;BME280;11076;47.942;11.804;2023-05-25T10:31:08;94795.81;;;19.56;70.63
21828;BME280;11076;47.942;11.804;2023-05-25T10:36:11;94784.41;;;19.49;69.51
21828;BME280;11076;47.942;11.804;2023-05-25T10:41:18;94763.47;;;20.28;67.23
21828;BME280;11076;47.942;11.804;2023-05-25T10:46:21;94770.53;;;20.39;67.07
21828;BME280;11076;47.942;11.804;2023-05-25T10:51:38;94761.81;;;20.17;66.18
21828;BME280;11076;47.942;11.804;2023-05-25T10:57:10;94771.03;;;20.05;68.70
21828;BME280;11076;47.942;11.804;2023-05-25T11:02:14;94761.28;;;20.51;66.23
21828;BME280;11076;47.942;11.804;2023-05-25T11:07:17;94776.13;;;19.81;68.48
21828;BME280;11076;47.942;11.804;2023-05-25T11:12:21;94770.34;;;19.67;69.77
21828;BME280;11076;47.942;11.804;2023-05-25T11:17:23;94768.28;;;19.90;68.05
21828;BME280;11076;47.942;11.804;2023-05-25T11:22:33;94769.44;;;20.45;66.84
21828;BME280;11076;47.942;11.804;2023-05-25T11:27:44;94776.50;;;20.46;66.06
21828;BME280;11076;47.942;11.804;2023-05-25T11:32:48;94781.13;;;20.36;67.50
21828;BME280;11076;47.942;11.804;2023-05-25T11:37:51;94763.50;;;20.69;66.81
21828;BME280;11076;47.942;11.804;2023-05-25T11:42:55;94771.66;;;20.69;66.70
21828;BME280;11076;47.942;11.804;2023-05-25T11:47:59;94765.09;;;20.34;65.15
21828;BME280;11076;47.942;11.804;2023-05-25T11:53:04;94762.66;;;20.48;65.98
21828;BME280;11076;47.942;11.804;2023-05-25T11:58:08;94758.03;;;20.90;63.79
21828;BME280;11076;47.942;11.804;2023-05-25T12:03:30;94754.75;;;20.82;63.68
21828;BME280;11076;47.942;11.804;2023-05-25T12:08:36;94754.25;;;20.50;64.57
21828;BME280;11076;47.942;11.804;2023-05-25T12:13:39;94759.25;;;19.64;68.61
21828;BME280;11076;47.942;11.804;2023-05-25T12:18:42;94759.13;;;20.78;66.10
21828;BME280;11076;47.942;11.804;2023-05-25T12:23:45;94768.31;;;21.13;65.83
21828;BME280;11076;47.942;11.804;2023-05-25T12:29:03;94766.16;;;20.08;65.15
21828;BME280;11076;47.942;11.804;2023-05-25T12:34:17;94760.75;;;20.79;65.03
21828;BME280;11076;47.942;11.804;2023-05-25T12:44:29;94760.63;;;21.36;63.78
21828;BME280;11076;47.942;11.804;2023-05-25T12:49:34;94749.78;;;21.25;61.83
21828;BME280;11076;47.942;11.804;2023-05-25T12:54:39;94745.69;;;21.33;62.53
21828;BME280;11076;47.942;11.804;2023-05-25T12:59:45;94757.44;;;21.13;63.40
21828;BME280;11076;47.942;11.804;2023-05-25T13:04:47;94758.00;;;21.80;63.64
21828;BME280;11076;47.942;11.804;2023-05-25T13:09:50;94754.00;;;21.68;61.71
21828;BME280;11076;47.942;11.804;2023-05-25T13:14:52;94755.78;;;21.12;62.58
21828;BME280;11076;47.942;11.804;2023-05-25T13:19:55;94748.22;;;20.99;63.55
21828;BME280;11076;47.942;11.804;2023-05-25T13:24:58;94731.47;;;21.52;62.22
21828;BME280;11076;47.942;11.804;2023-05-25T13:30:00;94731.91;;;21.04;63.60
21828;BME280;11076;47.942;11.804;2023-05-25T13:35:03;94738.47;;;20.11;66.78
21828;BME280;11076;47.942;11.804;2023-05-25T13:40:08;94736.28;;;19.92;69.05
21828;BME280;11076;47.942;11.804;2023-05-25T13:45:11;94736.88;;;20.35;67.63
21828;BME280;11076;47.942;11.804;2023-05-25T13:50:14;94730.34;;;20.52;67.34
21828;BME280;11076;47.942;11.804;2023-05-25T13:55:17;94723.25;;;20.92;66.06
21828;BME280;11076;47.942;11.804;2023-05-25T14:00:19;94734.13;;;20.51;67.10
21828;BME280;11076;47.942;11.804;2023-05-25T14:05:22;94741.75;;;20.28;67.38
21828;BME280;11076;47.942;11.804;2023-05-25T14:10:25;94730.34;;;20.16;68.35
21828;BME280;11076;47.942;11.804;2023-05-25T14:15:27;94731.25;;;19.53;70.27
21828;BME280;11076;47.942;11.804;2023-05-25T14:20:29;94733.00;;;19.95;69.64
21828;BME280;11076;47.942;11.804;2023-05-25T14:25:35;94733.31;;;20.91;67.56
21828;BME280;11076;47.942;11.804;2023-05-25T14:30:37;94730.69;;;21.41;66.44
21828;BME280;11076;47.942;11.804;2023-05-25T14:35:40;94741.94;;;21.14;65.90
21828;BME280;11076;47.942;11.804;2023-05-25T14:40:43;94730.31;;;20.00;68.96
21828;BME280;11076;47.942;11.804;2023-05-25T14:45:46;94730.34;;;20.62;67.80
21828;BME280;11076;47.942;11.804;2023-05-25T14:50:48;94730.03;;;20.79;67.21
21828;BME280;11076;47.942;11.804;2023-05-25T14:55:51;94729.19;;;20.99;66.83
21828;BME280;11076;47.942;11.804;2023-05-25T15:00:53;94733.03;;;20.46;66.97
21828;BME280;11076;47.942;11.804;2023-05-25T15:05:56;94740.13;;;20.32;66.89
21828;BME280;11076;47.942;11.804;2023-05-25T15:10:58;94736.06;;;20.65;67.11
21828;BME280;11076;47.942;11.804;2023-05-25T15:16:00;94730.28;;;20.93;67.22
21828;BME280;11076;47.942;11.804;2023-05-25T15:21:03;94731.97;;;20.83;66.95
21828;BME280;11076;47.942;11.804;2023-05-25T15:26:05;94736.31;;;20.38;67.77
21828;BME280;11076;47.942;11.804;2023-05-25T15:31:09;94730.34;;;20.72;68.90
21828;BME280;11076;47.942;11.804;2023-05-25T15:36:11;94724.31;;;20.96;67.58
21828;BME280;11076;47.942;11.804;2023-05-25T15:41:14;94725.69;;;20.83;67.83
21828;BME280;11076;47.942;11.804;2023-05-25T15:46:19;94727.06;;;20.80;68.75
21828;BME280;11076;47.942;11.804;2023-05-25T15:51:22;94725.41;;;20.90;67.58
21828;BME280;11076;47.942;11.804;2023-05-25T15:56:24;94719.47;;;20.77;68.03
21828;BME280;11076;47.942;11.804;2023-05-25T16:01:27;94725.13;;;20.96;68.13
21828;BME280;11076;47.942;11.804;2023-05-25T16:06:30;94727.84;;;20.96;67.62
21828;BME280;11076;47.942;11.804;2023-05-25T16:11:33;94725.19;;;20.24;69.49
21828;BME280;11076;47.942;11.804;2023-05-25T16:16:35;94728.69;;;20.92;68.12
21828;BME280;11076;47.942;11.804;2023-05-25T16:21:38;94727.09;;;20.50;68.67
21828;BME280;11076;47.942;11.804;2023-05-25T16:26:40;94737.38;;;20.53;68.17
21828;BME280;11076;47.942;11.804;2023-05-25T16:31:43;94736.31;;;20.79;68.32
21828;BME280;11076;47.942;11.804;2023-05-25T16:36:45;94750.16;;;20.47;69.08
21828;BME280;11076;47.942;11.804;2023-05-25T16:41:47;94736.84;;;20.25;70.08
21828;BME280;11076;47.942;11.804;2023-05-25T16:46:51;94745.00;;;20.35;69.25
21828;BME280;11076;47.942;11.804;2023-05-25T16:51:54;94744.75;;;20.32;70.07
21828;BME280;11076;47.942;11.804;2023-05-25T16:56:56;94743.88;;;19.95;70.99
21828;BME280;11076;47.942;11.804;2023-05-25T17:01:59;94736.84;;;20.30;70.89
21828;BME280;11076;47.942;11.804;2023-05-25T17:07:01;94734.69;;;20.83;69.60
21828;BME280;11076;47.942;11.804;2023-05-25T17:12:04;94739.78;;;21.05;68.76
21828;BME280;11076;47.942;11.804;2023-05-25T17:17:44;94736.75;;;21.17;68.46
21828;BME280;11076;47.942;11.804;2023-05-25T17:22:46;94736.75;;;21.12;68.01
21828;BME280;11076;47.942;11.804;2023-05-25T17:27:50;94733.81;;;21.03;69.26
21828;BME280;11076;47.942;11.804;2023-05-25T17:32:52;94740.09;;;20.89;70.06
21828;BME280;11076;47.942;11.804;2023-05-25T17:37:55;94740.66;;;20.85;70.40
21828;BME280;11076;47.942;11.804;2023-05-25T17:42:58;94741.47;;;20.76;70.35
21828;BME280;11076;47.942;11.804;2023-05-25T17:48:00;94736.84;;;20.51;71.05
21828;BME280;11076;47.942;11.804;2023-05-25T17:53:04;94744.44;;;20.33;72.08
21828;BME280;11076;47.942;11.804;2023-05-25T17:58:07;94740.63;;;20.09;73.26
21828;BME280;11076;47.942;11.804;2023-05-25T18:03:10;94759.03;;;19.81;74.11
21828;BME280;11076;47.942;11.804;2023-05-25T18:08:12;94752.72;;;19.65;74.40
21828;BME280;11076;47.942;11.804;2023-05-25T18:13:15;94753.72;;;19.38;75.61
21828;BME280;11076;47.942;11.804;2023-05-25T18:18:17;94762.19;;;18.94;77.38
21828;BME280;11076;47.942;11.804;2023-05-25T18:23:21;94762.19;;;18.57;78.52
21828;BME280;11076;47.942;11.804;2023-05-25T18:28:24;94761.81;;;18.11;80.00
21828;BME280;11076;47.942;11.804;2023-05-25T18:33:26;94766.84;;;17.30;83.00
21828;BME280;11076;47.942;11.804;2023-05-25T18:38:29;94770.50;;;16.80;85.15
21828;BME280;11076;47.942;11.804;2023-05-25T18:43:31;94781.16;;;16.36;87.26
21828;BME280;11076;47.942;11.804;2023-05-25T18:48:34;94778.78;;;16.06;89.15
21828;BME280;11076;47.942;11.804;2023-05-25T18:53:36;94784.53;;;15.81;90.40
21828;BME280;11076;47.942;11.804;2023-05-25T18:58:39;94784.97;;;15.49;92.29
21828;BME280;11076;47.942;11.804;2023-05-25T19:03:41;94792.66;;;15.28;93.78
21828;BME280;11076;47.942;11.804;2023-05-25T19:08:44;94797.13;;;15.11;95.00
21828;BME280;11076;47.942;11.804;2023-05-25T19:13:47;94797.28;;;14.93;96.17
21828;BME280;11076;47.942;11.804;2023-05-25T19:18:49;94803.84;;;14.73;97.20
21828;BME280;11076;47.942;11.804;2023-05-25T19:23:52;94808.16;;;14.50;98.49
21828;BME280;11076;47.942;11.804;2023-05-25T19:28:54;94819.72;;;14.39;99.64
21828;BME280;11076;47.942;11.804;2023-05-25T19:33:57;94823.41;;;14.26;100.00
21828;BME280;11076;47.942;11.804;2023-05-25T19:38:59;94827.53;;;14.29;100.00
21828;BME280;11076;47.942;11.804;2023-05-25T19:44:02;94830.22;;;14.29;100.00
21828;BME280;11076;47.942;11.804;2023-05-25T19:49:04;94835.00;;;14.27;100.00
21828;BME280;11076;47.942;11.804;2023-05-25T19:54:07;94839.22;;;14.23;100.00
21828;BME280;11076;47.942;11.804;2023-05-25T19:59:09;94841.41;;;14.14;100.00
21828;BME280;11076;47.942;11.804;2023-05-25T20:04:12;94851.66;;;14.05;100.00
21828;BME280;11076;47.942;11.804;2023-05-25T20:09:14;94842.28;;;13.96;100.00
21828;BME280;11076;47.942;11.804;2023-05-25T20:14:16;94850.53;;;13.83;100.00
21828;BME280;11076;47.942;11.804;2023-05-25T20:19:21;94852.28;;;13.77;100.00
21828;BME280;11076;47.942;11.804;2023-05-25T20:24:24;94863.41;;;13.62;100.00
21828;BME280;11076;47.942;11.804;2023-05-25T20:29:26;94863.50;;;13.56;100.00
21828;BME280;11076;47.942;11.804;2023-05-25T20:34:29;94860.97;;;13.42;100.00
21828;BME280;11076;47.942;11.804;2023-05-25T20:39:31;94859.25;;;13.29;100.00
21828;BME280;11076;47.942;11.804;2023-05-25T20:44:34;94857.97;;;13.32;100.00
21828;BME280;11076;47.942;11.804;2023-05-25T20:49:36;94861.66;;;13.38;100.00
21828;BME280;11076;47.942;11.804;2023-05-25T20:54:38;94856.97;;;13.26;100.00
21828;BME280;11076;47.942;11.804;2023-05-25T20:59:45;94861.88;;;13.11;100.00
21828;BME280;11076;47.942;11.804;2023-05-25T21:04:49;94849.22;;;13.00;100.00
21828;BME280;11076;47.942;11.804;2023-05-25T21:09:52;94859.66;;;12.89;100.00
21828;BME280;11076;47.942;11.804;2023-05-25T21:14:57;94863.88;;;12.79;100.00
21828;BME280;11076;47.942;11.804;2023-05-25T21:19:59;94863.56;;;12.68;100.00
21828;BME280;11076;47.942;11.804;2023-05-25T21:25:03;94868.38;;;12.60;100.00
21828;BME280;11076;47.942;11.804;2023-05-25T21:30:06;94871.94;;;12.53;100.00
21828;BME280;11076;47.942;11.804;2023-05-25T21:35:09;94871.97;;;12.47;100.00
21828;BME280;11076;47.942;11.804;2023-05-25T21:40:11;94878.28;;;12.34;100.00
21828;BME280;11076;47.942;11.804;2023-05-25T21:45:14;94877.50;;;12.27;100.00
21828;BME280;11076;47.942;11.804;2023-05-25T21:50:16;94869.50;;;12.20;100.00
21828;BME280;11076;47.942;11.804;2023-05-25T21:55:19;94868.84;;;12.25;100.00
21828;BME280;11076;47.942;11.804;2023-05-25T22:00:21;94871.53;;;12.25;100.00
21828;BME280;11076;47.942;11.804;2023-05-25T22:05:25;94867.44;;;12.22;100.00
21828;BME280;11076;47.942;11.804;2023-05-25T22:10:28;94871.72;;;12.30;100.00
21828;BME280;11076;47.942;11.804;2023-05-25T22:15:30;94863.94;;;12.22;100.00
21828;BME280;11076;47.942;11.804;2023-05-25T22:20:33;94869.72;;;12.19;100.00
21828;BME280;11076;47.942;11.804;2023-05-25T22:25:39;94864.97;;;12.21;100.00
21828;BME280;11076;47.942;11.804;2023-05-25T22:30:42;94872.84;;;12.16;100.00
21828;BME280;11076;47.942;11.804;2023-05-25T22:35:44;94883.19;;;12.05;100.00
21828;BME280;11076;47.942;11.804;2023-05-25T22:40:47;94880.91;;;12.16;100.00
21828;BME280;11076;47.942;11.804;2023-05-25T22:45:50;94877.16;;;12.17;100.00
21828;BME280;11076;47.942;11.804;2023-05-25T22:50:55;94871.81;;;12.17;100.00
21828;BME280;11076;47.942;11.804;2023-05-25T22:55:57;94873.94;;;12.08;100.00
21828;BME280;11076;47.942;11.804;2023-05-25T23:00:59;94867.00;;;11.93;100.00
21828;BME280;11076;47.942;11.804;2023-05-25T23:06:02;94883.28;;;11.85;100.00
21828;BME280;11076;47.942;11.804;2023-05-25T23:11:04;94880.25;;;11.82;100.00
21828;BME280;11076;47.942;11.804;2023-05-25T23:16:08;94876.31;;;11.78;100.00
21828;BME280;11076;47.942;11.804;2023-05-25T23:21:10;94875.09;;;11.80;100.00
21828;BME280;11076;47.942;11.804;2023-05-25T23:26:13;94869.53;;;11.82;100.00
21828;BME280;11076;47.942;11.804;2023-05-25T23:31:15;94869.66;;;12.00;100.00
21828;BME280;11076;47.942;11.804;2023-05-25T23:36:18;94865.84;;;12.14;100.00
21828;BME280;11076;47.942;11.804;2023-05-25T23:41:20;94861.69;;;12.19;100.00
21828;BME280;11076;47.942;11.804;2023-05-25T23:46:23;94858.81;;;12.13;100.00
21828;BME280;11076;47.942;11.804;2023-05-25T23:51:26;94851.69;;;12.01;100.00
21828;BME280;11076;47.942;11.804;2023-05-25T23:56:28;94854.06;;;11.84;100.00
